Time;durP1;ratioP1;P1;durP2;ratioP2;P2;SDS_P1;SDS_P2;PMS_P1;PMS_P2;Temp;Humidity;BMP_temperature;BMP_pressure;BME280_temperature;BME280_humidity;BME280_pressure;Samples;Min_cycle;Max_cycle;Signal;HPM_P1;HPM_P2
2021/10/24 06:02:12;;;;;;;10.93;4.07;;;17.40;67.70;;;;;;4753530;30;20133;-73
2021/10/24 06:04:37;;;;;;;10.35;4.53;;;17.40;67.20;;;;;;4759548;30;20423;-74
2021/10/24 06:07:03;;;;;;;8.70;4.18;;;17.50;67.10;;;;;;4759453;30;20055;-73
2021/10/24 06:09:44;;;;;;;8.70;4.00;;;17.60;66.70;;;;;;4758726;30;20056;-73
2021/10/24 06:12:17;;;;;;;9.25;4.25;;;17.60;66.00;;;;;;4758396;30;20452;-73
2021/10/24 06:14:43;;;;;;;12.60;4.40;;;17.70;65.80;;;;;;4759974;30;20051;-75
2021/10/24 06:17:09;;;;;;;11.18;4.20;;;17.70;64.90;;;;;;4758919;30;20067;-74
2021/10/24 06:19:36;;;;;;;8.57;3.58;;;17.80;65.30;;;;;;4759628;30;20120;-74
2021/10/24 06:22:02;;;;;;;11.30;3.83;;;17.90;65.60;;;;;;4773536;30;20463;-75
2021/10/24 06:24:28;;;;;;;10.27;4.05;;;18.00;65.60;;;;;;4759382;30;20345;-74
2021/10/24 06:26:54;;;;;;;11.43;4.03;;;18.10;65.70;;;;;;4756735;30;20067;-73
2021/10/24 06:29:19;;;;;;;8.60;4.05;;;18.10;65.40;;;;;;4756661;30;20135;-73
2021/10/24 06:31:45;;;;;;;6.90;3.53;;;18.10;65.60;;;;;;4756380;30;20062;-74
2021/10/24 06:34:11;;;;;;;8.50;3.40;;;18.10;65.20;;;;;;4756806;30;20529;-73
2021/10/24 06:36:37;;;;;;;10.07;4.60;;;18.10;65.60;;;;;;4756894;30;20056;-74
2021/10/24 06:39:02;;;;;;;11.48;4.55;;;18.10;65.70;;;;;;4756519;30;20147;-76
2021/10/24 06:41:28;;;;;;;14.30;4.55;;;18.10;65.40;;;;;;4756802;30;20059;-74
2021/10/24 06:43:54;;;;;;;11.43;3.95;;;18.10;65.20;;;;;;4754917;30;20052;-72
2021/10/24 06:46:20;;;;;;;11.77;3.88;;;18.10;65.60;;;;;;4753733;30;20143;-75
2021/10/24 06:48:46;;;;;;;17.77;4.82;;;18.10;66.00;;;;;;4740456;30;20381;-74
2021/10/24 06:51:12;;;;;;;14.70;4.13;;;18.00;65.90;;;;;;4755404;30;20069;-74
2021/10/24 06:53:37;;;;;;;17.15;4.72;;;18.00;66.10;;;;;;4756236;30;20088;-73
2021/10/24 06:56:03;;;;;;;13.35;5.38;;;18.00;66.00;;;;;;4756094;30;20060;-74
2021/10/24 06:58:29;;;;;;;12.80;3.75;;;17.90;61.90;;;;;;4755882;30;20433;-76
2021/10/24 07:00:55;;;;;;;11.38;4.50;;;18.00;65.80;;;;;;4756070;30;20117;-72
2021/10/24 07:03:21;;;;;;;6.82;4.38;;;18.00;66.60;;;;;;4739394;30;20583;-74
2021/10/24 07:05:47;;;;;;;14.50;3.92;;;17.90;66.40;;;;;;4772900;30;20059;-80
2021/10/24 07:08:12;;;;;;;11.98;3.92;;;17.90;67.00;;;;;;4772185;30;20051;-74
2021/10/24 07:10:38;;;;;;;9.30;4.35;;;18.00;67.60;;;;;;4755006;30;20474;-73
2021/10/24 07:13:04;;;;;;;9.73;5.13;;;18.00;67.10;;;;;;4754867;30;20056;-75
2021/10/24 07:15:30;;;;;;;11.02;5.65;;;18.00;66.00;;;;;;4754733;30;20060;-73
2021/10/24 07:17:56;;;;;;;18.45;5.88;;;17.70;64.80;;;;;;4756167;30;20048;-73
2021/10/24 07:20:22;;;;;;;16.73;6.65;;;17.80;66.30;;;;;;4770684;30;20062;-73
2021/10/24 07:22:48;;;;;;;26.77;6.20;;;17.80;66.50;;;;;;4772714;30;20130;-73
2021/10/24 07:25:13;;;;;;;26.65;7.15;;;17.80;66.60;;;;;;4773782;30;20063;-74
2021/10/24 07:27:40;;;;;;;29.50;7.38;;;17.80;66.50;;;;;;4772409;30;20472;-76
2021/10/24 07:30:07;;;;;;;20.45;7.10;;;17.80;66.80;;;;;;4770807;30;20119;-76
2021/10/24 07:32:33;;;;;;;20.27;6.47;;;17.60;66.40;;;;;;4755780;30;20052;-74
2021/10/24 07:34:59;;;;;;;27.80;6.45;;;17.70;67.00;;;;;;4755579;30;20127;-74
2021/10/24 07:37:25;;;;;;;25.67;5.70;;;17.80;67.00;;;;;;4755051;30;20128;-74
2021/10/24 07:39:50;;;;;;;21.70;5.70;;;17.80;67.00;;;;;;4755687;30;20048;-73
2021/10/24 07:42:16;;;;;;;19.95;5.72;;;17.80;66.80;;;;;;4757351;30;20118;-76
2021/10/24 07:44:42;;;;;;;23.52;5.88;;;17.90;66.70;;;;;;4773005;30;20136;-75
2021/10/24 07:47:07;;;;;;;10.77;5.32;;;17.90;65.90;;;;;;4773867;30;20426;-73
2021/10/24 07:49:33;;;;;;;15.75;5.20;;;17.90;65.70;;;;;;4773334;30;20089;-76
2021/10/24 07:51:59;;;;;;;18.40;5.57;;;17.90;65.70;;;;;;4772992;30;20473;-73
2021/10/24 07:54:26;;;;;;;13.82;5.45;;;17.90;65.80;;;;;;4757446;30;20139;-71
2021/10/24 07:56:52;;;;;;;15.02;5.18;;;17.90;65.60;;;;;;4773109;30;20044;-72
2021/10/24 07:59:20;;;;;;;18.45;5.72;;;17.90;65.50;;;;;;4773046;30;20478;-72
2021/10/24 08:01:46;;;;;;;12.45;5.68;;;17.80;65.10;;;;;;4772500;30;20143;-73
2021/10/24 08:04:12;;;;;;;11.27;5.15;;;17.70;64.70;;;;;;4773143;30;20139;-73
2021/10/24 08:06:38;;;;;;;13.48;5.10;;;17.50;65.20;;;;;;4770130;30;20048;-71
2021/10/24 08:09:07;;;;;;;12.63;4.57;;;17.50;65.70;;;;;;4763681;30;20098;-71
2021/10/24 08:11:34;;;;;;;11.43;4.13;;;17.50;65.80;;;;;;4773041;30;20140;-72
2021/10/24 08:14:02;;;;;;;9.23;4.20;;;17.50;65.70;;;;;;4772641;30;20063;-71
2021/10/24 08:16:28;;;;;;;13.77;5.35;;;17.50;65.70;;;;;;4770395;30;20058;-71
2021/10/24 08:18:53;;;;;;;8.18;4.47;;;17.40;65.10;;;;;;4773037;30;20059;-72
2021/10/24 08:21:20;;;;;;;10.98;4.35;;;17.40;65.80;;;;;;4772748;30;20084;-72
2021/10/24 08:23:46;;;;;;;11.02;4.07;;;17.40;65.90;;;;;;4772786;30;20376;-73
2021/10/24 08:26:14;;;;;;;10.88;3.85;;;17.50;65.90;;;;;;4772023;30;20055;-72
2021/10/24 08:28:40;;;;;;;6.55;3.50;;;17.50;65.90;;;;;;4772622;30;20059;-72
2021/10/24 08:31:06;;;;;;;10.82;5.75;;;17.60;65.90;;;;;;4772627;30;20058;-70
2021/10/24 08:33:31;;;;;;;7.75;4.05;;;17.30;69.50;;;;;;4772710;30;20367;-71
2021/10/24 08:35:59;;;;;;;10.02;3.70;;;17.30;69.40;;;;;;4772561;30;20454;-71
2021/10/24 08:38:26;;;;;;;7.00;3.90;;;17.40;69.00;;;;;;4771707;30;20076;-71
2021/10/24 08:40:53;;;;;;;10.05;4.90;;;17.40;68.20;;;;;;4772260;30;20048;-72
2021/10/24 08:43:26;;;;;;;9.32;3.80;;;17.40;68.50;;;;;;4772487;30;20059;-71
2021/10/24 08:45:52;;;;;;;;;;;17.20;68.90;;;;;;4771848;30;20468;-72
2021/10/24 08:48:18;;;;;;;11.93;4.40;;;17.30;68.80;;;;;;4763091;30;20021;-71
2021/10/24 08:50:45;;;;;;;7.28;4.22;;;17.30;68.90;;;;;;4723682;30;20198;-70
2021/10/24 08:53:14;;;;;;;7.78;3.50;;;17.40;69.00;;;;;;4739059;30;20052;-71
2021/10/24 08:55:41;;;;;;;7.25;3.60;;;17.40;69.00;;;;;;4754748;30;20056;-71
2021/10/24 08:58:11;;;;;;;7.13;3.78;;;17.40;69.00;;;;;;4754205;30;20078;-70
2021/10/24 09:00:38;;;;;;;12.57;4.03;;;17.40;69.10;;;;;;4747434;30;20052;-72
2021/10/24 09:03:09;;;;;;;12.93;3.50;;;17.40;69.10;;;;;;4752347;30;20096;-76
2021/10/24 09:05:48;;;;;;;10.07;3.35;;;17.50;69.30;;;;;;4745931;30;20064;-76
2021/10/24 09:08:22;;;;;;;9.07;3.72;;;17.50;69.30;;;;;;4753517;30;20137;-76
2021/10/24 09:10:56;;;;;;;12.30;3.65;;;17.50;69.30;;;;;;4754689;30;20051;-76
2021/10/24 09:13:28;;;;;;;6.07;3.15;;;17.50;69.30;;;;;;4754529;30;20056;-77
2021/10/24 09:16:02;;;;;;;9.55;2.80;;;17.50;69.20;;;;;;4738510;30;20071;-73
2021/10/24 09:18:39;;;;;;;11.05;3.20;;;17.50;69.20;;;;;;4754157;30;20052;-73
2021/10/24 09:21:18;;;;;;;11.68;3.47;;;17.50;68.90;;;;;;4754061;30;20075;-73
2021/10/24 09:23:52;;;;;;;12.90;3.78;;;17.50;68.40;;;;;;4754376;30;20052;-72
2021/10/24 09:26:23;;;;;;;16.30;4.50;;;17.50;68.00;;;;;;4754280;30;20052;-73
2021/10/24 09:29:04;;;;;;;18.95;4.80;;;17.50;67.60;;;;;;4738480;30;20071;-72
2021/10/24 09:31:39;;;;;;;11.95;3.92;;;17.30;67.50;;;;;;4754226;30;20059;-70
2021/10/24 09:34:15;;;;;;;15.55;4.05;;;17.30;67.70;;;;;;4754034;30;20057;-71
2021/10/24 09:37:08;;;;;;;24.15;4.07;;;17.40;67.10;;;;;;4753936;30;20368;-71
2021/10/24 09:39:36;;;;;;;23.80;4.25;;;17.40;67.00;;;;;;4756908;30;20052;-71
2021/10/24 09:42:22;;;;;;;19.67;4.35;;;17.40;67.50;;;;;;4758931;30;20056;-75
2021/10/24 09:45:01;;;;;;;15.57;3.92;;;17.40;67.40;;;;;;4754099;30;20060;-71
2021/10/24 09:47:28;;;;;;;20.45;3.65;;;17.50;67.40;;;;;;4753939;30;20099;-70
2021/10/24 09:49:53;;;;;;;22.65;3.55;;;17.40;67.60;;;;;;4753874;30;20052;-72
2021/10/24 09:52:32;;;;;;;16.90;3.33;;;17.40;68.00;;;;;;4753763;30;20086;-73
2021/10/24 09:55:00;;;;;;;17.20;4.55;;;17.40;68.80;;;;;;4765630;30;20060;-70
2021/10/24 09:57:28;;;;;;;14.48;5.75;;;17.50;69.00;;;;;;4770833;30;20048;-72
2021/10/24 09:59:54;;;;;;;20.55;4.57;;;17.50;69.60;;;;;;4771483;30;20477;-72
2021/10/24 10:02:20;;;;;;;16.85;3.70;;;17.60;69.60;;;;;;4774679;30;20067;-71
2021/10/24 10:04:47;;;;;;;10.05;4.60;;;17.60;69.40;;;;;;4774799;30;20135;-70
2021/10/24 10:07:20;;;;;;;14.85;4.10;;;17.70;66.30;;;;;;4767751;30;20047;-72
2021/10/24 10:09:46;;;;;;;13.18;4.40;;;17.70;65.90;;;;;;4757337;30;20400;-76
2021/10/24 10:12:17;;;;;;;15.00;4.20;;;17.70;66.00;;;;;;4757456;30;20060;-75
2021/10/24 10:14:45;;;;;;;10.15;3.92;;;17.70;66.30;;;;;;4756872;30;20051;-74
2021/10/24 10:17:21;;;;;;;15.02;3.78;;;17.70;66.50;;;;;;4757072;30;20134;-74
2021/10/24 10:19:49;;;;;;;15.90;4.43;;;17.70;66.60;;;;;;4762863;30;20073;-70
2021/10/24 10:22:30;;;;;;;18.15;3.30;;;17.80;66.70;;;;;;4774614;30;20121;-73
2021/10/24 10:25:00;;;;;;;14.73;3.22;;;17.80;66.40;;;;;;4774283;30;20162;-73
2021/10/24 10:27:29;;;;;;;14.48;3.63;;;17.90;66.30;;;;;;4774207;30;20056;-71
2021/10/24 10:29:59;;;;;;;13.15;3.85;;;17.90;66.40;;;;;;4774286;30;20483;-71
2021/10/24 10:32:47;;;;;;;14.77;3.70;;;18.00;66.20;;;;;;4774897;30;20337;-71
2021/10/24 10:35:18;;;;;;;23.00;4.05;;;18.10;66.10;;;;;;4774467;30;20055;-70
2021/10/24 10:37:57;;;;;;;15.13;3.47;;;18.10;66.00;;;;;;4757476;30;20483;-73
2021/10/24 10:40:28;;;;;;;19.08;4.10;;;18.20;66.40;;;;;;4754706;30;20067;-75
2021/10/24 10:43:13;;;;;;;21.27;3.53;;;18.20;66.30;;;;;;4756433;30;20388;-73
2021/10/24 10:45:40;;;;;;;14.95;3.60;;;18.30;65.50;;;;;;4755875;30;20464;-72
2021/10/24 10:48:27;;;;;;;12.82;3.30;;;18.30;63.90;;;;;;4770463;30;20056;-72
2021/10/24 10:50:57;;;;;;;15.15;3.70;;;18.30;62.80;;;;;;4756253;30;20048;-72
2021/10/24 10:53:32;;;;;;;9.68;2.65;;;18.30;63.20;;;;;;4756622;30;20056;-73
2021/10/24 10:56:05;;;;;;;11.18;3.00;;;18.30;63.00;;;;;;4756581;30;20056;-72
2021/10/24 10:58:36;;;;;;;10.85;3.17;;;18.30;63.20;;;;;;4756144;30;20056;-72
2021/10/24 11:01:16;;;;;;;8.38;2.72;;;18.20;62.80;;;;;;4755831;30;20064;-72
2021/10/24 11:03:50;;;;;;;7.97;2.78;;;18.20;62.90;;;;;;4756303;30;20456;-73
2021/10/24 11:06:28;;;;;;;;;;;18.20;63.00;;;;;;4756428;30;20131;-75
2021/10/24 11:08:58;;;;;;;13.38;2.97;;;18.10;62.40;;;;;;4755881;30;20350;-73
2021/10/24 11:14:16;;;;;;;9.77;2.67;;;18.20;62.60;;;;;;4755772;30;20056;-74
2021/10/24 11:16:46;;;;;;;7.35;2.80;;;18.10;62.10;;;;;;4754751;30;20110;-73
2021/10/24 11:19:32;;;;;;;7.53;2.60;;;18.10;61.90;;;;;;4756586;30;20048;-75
2021/10/24 11:22:03;;;;;;;7.72;2.55;;;18.00;61.40;;;;;;4755608;30;20342;-75
2021/10/24 11:24:50;;;;;;;5.43;2.00;;;18.00;62.10;;;;;;4755995;30;20048;-73
2021/10/24 11:27:18;;;;;;;8.32;2.25;;;18.00;61.90;;;;;;4756066;30;20056;-73
2021/10/24 11:29:50;;;;;;;5.30;2.10;;;17.90;63.10;;;;;;4755703;30;20453;-73
2021/10/24 11:32:33;;;;;;;9.63;2.40;;;17.90;62.60;;;;;;4755387;30;20074;-72
2021/10/24 11:35:01;;;;;;;5.60;2.47;;;17.60;63.50;;;;;;4756100;30;20067;-72
2021/10/24 11:37:38;;;;;;;5.45;2.22;;;17.40;64.10;;;;;;4755883;30;20060;-73
2021/10/24 11:40:09;;;;;;;7.45;2.10;;;17.10;64.90;;;;;;4755454;30;20064;-73
2021/10/24 11:42:36;;;;;;;6.70;2.45;;;16.90;65.90;;;;;;4755130;30;20060;-73
2021/10/24 11:45:22;;;;;;;6.20;2.40;;;16.80;66.80;;;;;;4755275;30;20368;-72
2021/10/24 11:48:07;;;;;;;6.22;1.98;;;16.70;66.30;;;;;;4755489;30;20056;-73
2021/10/24 11:50:53;;;;;;;6.78;2.08;;;16.70;66.60;;;;;;4756090;30;20079;-73
2021/10/24 11:53:32;;;;;;;5.05;2.35;;;16.50;67.00;;;;;;4755614;30;20156;-72
2021/10/24 11:56:00;;;;;;;5.45;2.60;;;16.50;67.30;;;;;;4755629;30;20141;-74
2021/10/24 11:58:53;;;;;;;4.50;2.00;;;16.40;67.30;;;;;;4755371;30;20377;-72
2021/10/24 12:01:24;;;;;;;5.18;1.95;;;16.40;66.90;;;;;;4754830;30;20056;-72
2021/10/24 12:04:04;;;;;;;5.93;1.88;;;16.40;67.40;;;;;;4754955;30;20067;-73
2021/10/24 12:06:53;;;;;;;5.22;1.70;;;16.40;67.50;;;;;;4755233;30;20505;-73
2021/10/24 12:09:39;;;;;;;5.18;1.90;;;16.30;67.60;;;;;;4755105;30;20060;-73
2021/10/24 12:12:13;;;;;;;3.58;1.90;;;16.30;67.40;;;;;;4755383;30;20058;-73
2021/10/24 12:14:58;;;;;;;2.72;1.67;;;16.30;67.70;;;;;;4755062;30;20048;-72
2021/10/24 12:17:32;;;;;;;3.75;1.65;;;16.30;67.80;;;;;;4755004;30;20472;-73
2021/10/24 12:20:19;;;;;;;3.65;2.03;;;16.30;67.80;;;;;;4754694;30;20528;-72
2021/10/24 12:22:48;;;;;;;2.90;1.80;;;16.30;67.50;;;;;;4754878;30;20121;-72
2021/10/24 12:25:20;;;;;;;4.88;1.95;;;16.30;68.00;;;;;;4754817;30;20496;-73
2021/10/24 12:28:11;;;;;;;4.55;1.80;;;16.30;68.00;;;;;;4739329;30;20059;-76
2021/10/24 12:30:37;;;;;;;8.50;2.05;;;16.40;67.50;;;;;;4754590;30;20380;-76
2021/10/24 12:33:16;;;;;;;4.88;2.22;;;16.30;67.90;;;;;;4755094;30;20052;-73
2021/10/24 12:35:44;;;;;;;3.88;1.88;;;16.30;68.10;;;;;;4755263;30;20495;-72
2021/10/24 12:38:11;;;;;;;4.47;1.90;;;16.30;68.10;;;;;;4754317;30;20137;-71
2021/10/24 12:40:37;;;;;;;6.18;2.40;;;16.30;68.00;;;;;;4754359;30;20457;-72
2021/10/24 12:43:17;;;;;;;4.10;1.85;;;16.30;68.10;;;;;;4739156;30;20123;-72
2021/10/24 12:45:52;;;;;;;4.65;1.80;;;16.40;68.60;;;;;;4754596;30;20121;-72
2021/10/24 12:48:20;;;;;;;4.10;1.70;;;16.40;67.90;;;;;;4755331;30;20390;-72
2021/10/24 12:50:47;;;;;;;5.30;2.13;;;16.30;67.80;;;;;;4754423;30;20135;-72
2021/10/24 12:53:17;;;;;;;4.45;1.75;;;16.30;68.00;;;;;;4754835;30;20410;-71
2021/10/24 12:56:04;;;;;;;4.53;1.90;;;16.30;68.60;;;;;;4754443;30;20067;-72
2021/10/24 12:58:31;;;;;;;5.45;2.25;;;16.30;67.80;;;;;;4736774;30;20143;-72
2021/10/24 13:00:57;;;;;;;5.80;2.33;;;16.30;68.10;;;;;;4737162;30;20060;-72
2021/10/24 13:03:22;;;;;;;3.22;1.63;;;16.30;68.30;;;;;;4754673;30;20060;-71
2021/10/24 13:05:48;;;;;;;4.63;2.42;;;16.20;68.30;;;;;;4754082;30;20084;-72
2021/10/24 13:08:15;;;;;;;4.05;1.65;;;16.30;68.40;;;;;;4754510;30;20048;-72
2021/10/24 13:10:41;;;;;;;3.53;1.85;;;16.30;68.40;;;;;;4754647;30;20052;-71
2021/10/24 13:13:08;;;;;;;4.60;1.80;;;16.30;68.40;;;;;;4754347;30;20055;-71
2021/10/24 13:15:33;;;;;;;4.50;1.95;;;16.30;68.60;;;;;;4754870;30;20044;-71
2021/10/24 13:17:59;;;;;;;6.40;2.15;;;16.30;68.50;;;;;;4754031;30;20044;-72
2021/10/24 13:20:26;;;;;;;3.45;1.90;;;16.30;68.50;;;;;;4754214;30;20132;-72
2021/10/24 13:22:57;;;;;;;4.22;2.33;;;16.20;68.60;;;;;;4754798;30;20135;-72
2021/10/24 13:25:25;;;;;;;6.00;2.28;;;16.30;68.70;;;;;;4768166;30;20051;-71
2021/10/24 13:27:54;;;;;;;5.43;2.33;;;16.30;68.70;;;;;;4772148;30;20486;-72
2021/10/24 13:30:21;;;;;;;5.90;2.20;;;16.30;68.70;;;;;;4772001;30;20060;-72
2021/10/24 13:32:49;;;;;;;6.20;2.45;;;16.30;68.70;;;;;;4771614;30;20452;-73
2021/10/24 13:35:19;;;;;;;7.43;3.17;;;16.40;68.60;;;;;;4771953;30;20051;-72
2021/10/24 13:37:45;;;;;;;9.63;3.92;;;16.40;68.00;;;;;;4775633;30;20055;-71
2021/10/24 13:40:12;;;;;;;12.65;3.83;;;16.50;67.20;;;;;;4774764;30;20062;-72
2021/10/24 13:42:38;;;;;;;8.02;3.50;;;16.60;66.70;;;;;;4775377;30;20120;-73
2021/10/24 13:45:05;;;;;;;30.33;5.18;;;16.70;66.50;;;;;;4775750;30;20052;-70
2021/10/24 13:47:31;;;;;;;13.10;5.63;;;16.70;65.90;;;;;;4774036;30;20066;-75
2021/10/24 13:49:57;;;;;;;15.25;4.20;;;16.80;64.90;;;;;;4777590;30;20487;-71
2021/10/24 13:52:22;;;;;;;18.75;4.85;;;16.80;64.30;;;;;;4774665;30;20044;-72
2021/10/24 13:54:49;;;;;;;22.33;5.18;;;16.90;64.30;;;;;;4774798;30;20086;-72
2021/10/24 13:57:14;;;;;;;23.85;5.25;;;16.90;64.20;;;;;;4792492;30;20055;-72
2021/10/24 13:59:41;;;;;;;16.02;4.65;;;17.00;63.90;;;;;;4793450;30;20123;-72
2021/10/24 14:02:08;;;;;;;19.42;4.45;;;17.00;63.50;;;;;;4784662;30;20130;-71
2021/10/24 14:04:34;;;;;;;20.35;4.97;;;17.00;63.50;;;;;;4774726;30;20055;-72
2021/10/24 14:07:01;;;;;;;31.95;5.68;;;17.00;63.70;;;;;;4774941;30;20499;-71
2021/10/24 14:09:26;;;;;;;23.73;5.40;;;17.00;63.90;;;;;;4774690;30;20051;-72
2021/10/24 14:11:52;;;;;;;20.70;4.43;;;17.00;64.20;;;;;;4776282;30;20048;-73
2021/10/24 14:14:18;;;;;;;24.25;4.40;;;17.00;64.40;;;;;;4774455;30;20146;-71
2021/10/24 14:16:44;;;;;;;30.35;5.40;;;17.00;64.50;;;;;;4774247;30;20125;-73
2021/10/24 14:19:10;;;;;;;22.80;4.38;;;17.00;64.60;;;;;;4774219;30;20080;-72
2021/10/24 14:21:36;;;;;;;20.83;5.20;;;17.00;64.70;;;;;;4774577;30;20048;-72
2021/10/24 14:24:02;;;;;;;20.38;4.07;;;17.10;64.80;;;;;;4774242;30;20083;-71
2021/10/24 14:26:27;;;;;;;14.60;4.15;;;17.00;64.80;;;;;;4774573;30;20040;-70
2021/10/24 14:28:54;;;;;;;17.50;4.25;;;17.10;65.00;;;;;;4774031;30;20129;-71
2021/10/24 14:31:20;;;;;;;21.90;4.50;;;17.10;65.10;;;;;;4774345;30;20051;-71
2021/10/24 14:33:47;;;;;;;24.33;5.05;;;17.10;65.30;;;;;;4774415;30;20474;-72
2021/10/24 14:36:12;;;;;;;13.73;2.90;;;17.10;65.50;;;;;;4774566;30;20361;-71
2021/10/24 14:38:38;;;;;;;12.02;3.65;;;17.10;65.50;;;;;;4775197;30;20109;-72
2021/10/24 14:41:04;;;;;;;14.30;2.88;;;17.20;65.50;;;;;;4774524;30;20063;-70
2021/10/24 14:43:30;;;;;;;16.92;2.92;;;17.40;65.50;;;;;;4776536;30;20065;-71
2021/10/24 14:45:56;;;;;;;20.25;3.67;;;17.60;65.20;;;;;;4784937;30;20059;-72
2021/10/24 14:48:21;;;;;;;23.00;3.92;;;17.80;64.90;;;;;;4772973;30;20130;-70
2021/10/24 14:50:47;;;;;;;12.25;2.85;;;18.00;64.60;;;;;;4774441;30;20067;-72
2021/10/24 14:53:13;;;;;;;14.10;3.50;;;18.10;64.40;;;;;;4773702;30;20483;-71
2021/10/24 14:55:38;;;;;;;16.25;3.45;;;18.20;64.30;;;;;;4774003;30;20043;-72
2021/10/24 14:58:04;;;;;;;17.73;3.88;;;18.00;64.10;;;;;;4772907;30;20130;-71
2021/10/24 15:00:30;;;;;;;13.15;2.90;;;17.90;63.20;;;;;;4773830;30;20051;-71
2021/10/24 15:02:56;;;;;;;24.60;3.35;;;17.60;65.20;;;;;;4773788;30;20062;-71
2021/10/24 15:05:26;;;;;;;19.95;3.50;;;17.80;65.90;;;;;;4773715;30;20533;-71
2021/10/24 15:07:52;;;;;;;17.40;3.05;;;17.90;65.70;;;;;;4773778;30;20059;-72
2021/10/24 15:10:19;;;;;;;12.38;3.20;;;18.10;65.70;;;;;;4773745;30;20088;-69
2021/10/24 15:12:46;;;;;;;12.10;2.60;;;18.10;65.50;;;;;;4773658;30;20138;-72
2021/10/24 15:15:13;;;;;;;16.50;3.20;;;18.20;65.40;;;;;;4773525;30;20482;-71
2021/10/24 15:17:45;;;;;;;13.95;3.22;;;18.20;65.30;;;;;;4773921;30;20059;-73
2021/10/24 15:22:57;;;;;;;6.50;2.30;;;18.40;65.40;;;;;;4773577;30;20376;-72
2021/10/24 15:25:23;;;;;;;17.92;3.35;;;18.40;65.60;;;;;;4773309;30;20175;-72
2021/10/24 15:27:52;;;;;;;20.75;3.80;;;18.50;65.70;;;;;;4773467;30;20405;-72
2021/10/24 15:30:19;;;;;;;18.67;4.22;;;18.60;65.80;;;;;;4773307;30;20060;-72
2021/10/24 15:32:45;;;;;;;14.82;3.63;;;18.70;65.80;;;;;;4757646;30;20067;-72
2021/10/24 15:35:11;;;;;;;13.70;3.92;;;18.80;65.80;;;;;;4773563;30;20063;-73
2021/10/24 15:37:37;;;;;;;12.35;2.95;;;18.90;65.70;;;;;;4772924;30;20052;-72
2021/10/24 15:40:05;;;;;;;18.90;4.40;;;18.90;65.60;;;;;;4773614;30;20448;-72
2021/10/24 15:42:31;;;;;;;17.05;4.70;;;19.00;65.90;;;;;;4773348;30;20066;-73
2021/10/24 15:44:57;;;;;;;15.32;4.60;;;19.00;66.10;;;;;;4772809;30;20055;-71
2021/10/24 15:47:23;;;;;;;15.73;4.63;;;19.00;66.40;;;;;;4773208;30;20140;-71
2021/10/24 15:49:49;;;;;;;58.33;9.50;;;19.00;66.60;;;;;;4773497;30;20095;-75
2021/10/24 15:52:15;;;;;;;36.63;6.72;;;19.00;67.00;;;;;;4778992;30;20451;-72
2021/10/24 15:54:41;;;;;;;35.50;6.93;;;19.00;66.90;;;;;;4791481;30;20058;-72
2021/10/24 15:57:06;;;;;;;36.38;7.18;;;19.00;66.80;;;;;;4790826;30;20206;-72
2021/10/24 15:59:32;;;;;;;40.90;6.30;;;18.90;66.90;;;;;;4777652;29;20076;-75
2021/10/24 16:01:58;;;;;;;35.08;6.30;;;18.90;67.10;;;;;;4772851;30;20399;-72
2021/10/24 16:04:23;;;;;;;29.13;6.10;;;18.80;67.40;;;;;;4772947;30;20063;-72
2021/10/24 16:06:49;;;;;;;30.25;6.40;;;18.80;67.90;;;;;;4773069;30;20384;-71
2021/10/24 16:09:20;;;;;;;27.45;5.75;;;18.70;67.80;;;;;;4772677;30;20047;-76
2021/10/24 16:11:46;;;;;;;22.52;6.28;;;18.70;68.50;;;;;;4772796;30;20055;-72
2021/10/24 16:14:11;;;;;;;24.27;5.43;;;18.70;69.20;;;;;;4772855;30;20074;-73
2021/10/24 16:16:39;;;;;;;31.95;5.75;;;18.60;69.60;;;;;;4773201;30;20071;-72
2021/10/24 16:19:05;;;;;;;28.48;5.30;;;18.60;68.90;;;;;;4772867;30;20064;-73
2021/10/24 16:21:31;;;;;;;23.23;5.40;;;18.60;68.50;;;;;;4772916;30;20478;-72
2021/10/24 16:23:57;;;;;;;25.25;6.25;;;18.50;68.60;;;;;;4772057;30;20052;-72
2021/10/24 16:26:23;;;;;;;19.42;5.93;;;18.50;69.00;;;;;;4772894;30;20210;-72
2021/10/24 16:28:48;;;;;;;20.98;5.50;;;18.50;69.40;;;;;;4772977;30;20089;-73
2021/10/24 16:31:14;;;;;;;23.20;5.25;;;18.50;69.80;;;;;;4772346;30;20056;-73
2021/10/24 16:33:41;;;;;;;15.10;4.60;;;18.40;70.20;;;;;;4772634;30;20059;-73
2021/10/24 16:36:07;;;;;;;23.35;4.55;;;18.40;70.40;;;;;;4772307;30;20079;-73
2021/10/24 16:38:33;;;;;;;20.85;5.13;;;18.40;70.70;;;;;;4757075;30;20090;-72
2021/10/24 16:40:59;;;;;;;16.63;4.63;;;18.40;70.70;;;;;;4772480;30;20070;-72
2021/10/24 16:43:26;;;;;;;22.48;5.53;;;18.30;70.70;;;;;;4772408;30;20142;-72
2021/10/24 16:45:53;;;;;;;20.63;4.78;;;18.30;70.80;;;;;;4772344;30;20052;-72
2021/10/24 16:48:22;;;;;;;21.17;4.68;;;18.30;70.80;;;;;;4772323;30;20052;-72
2021/10/24 16:50:48;;;;;;;33.70;5.68;;;18.30;70.90;;;;;;4771673;30;20056;-71
2021/10/24 16:53:14;;;;;;;23.52;4.68;;;18.30;71.00;;;;;;4772064;30;20151;-74
2021/10/24 16:55:40;;;;;;;27.05;5.30;;;18.20;70.90;;;;;;4772109;30;20116;-71
2021/10/24 16:58:06;;;;;;;26.17;5.47;;;18.20;71.00;;;;;;4772294;30;20048;-75
2021/10/24 17:00:32;;;;;;;19.73;4.80;;;18.20;70.90;;;;;;4772219;30;20055;-74
2021/10/24 17:02:58;;;;;;;24.08;5.35;;;18.20;69.70;;;;;;4771208;30;20068;-73
2021/10/24 17:05:25;;;;;;;27.77;4.28;;;18.10;70.30;;;;;;4771868;30;20341;-76
2021/10/24 17:07:50;;;;;;;18.58;4.40;;;18.10;71.30;;;;;;4771343;30;20128;-74
2021/10/24 17:10:16;;;;;;;26.05;4.57;;;18.10;71.70;;;;;;4771948;30;20115;-73
2021/10/24 17:12:42;;;;;;;31.27;5.13;;;18.10;71.50;;;;;;4771830;30;20056;-73
2021/10/24 17:15:08;;;;;;;44.17;6.70;;;18.10;71.60;;;;;;4772524;30;20047;-74
2021/10/24 17:17:34;;;;;;;42.05;6.60;;;18.10;72.20;;;;;;4771965;30;20390;-73
2021/10/24 17:20:00;;;;;;;53.17;6.50;;;18.10;71.80;;;;;;4772101;30;20048;-73
2021/10/24 17:22:26;;;;;;;50.17;6.18;;;18.10;71.90;;;;;;4771874;30;20445;-73
2021/10/24 17:24:52;;;;;;;34.75;6.63;;;18.10;72.00;;;;;;4771813;30;20051;-73
2021/10/24 17:27:23;;;;;;;31.58;5.53;;;18.10;71.90;;;;;;4777032;30;20054;-73
2021/10/24 17:29:50;;;;;;;30.48;5.80;;;18.10;71.90;;;;;;4789845;30;20211;-73
2021/10/24 17:32:17;;;;;;;27.77;5.20;;;18.10;71.90;;;;;;4778099;30;20507;-73
2021/10/24 17:34:44;;;;;;;29.65;5.40;;;18.00;71.90;;;;;;4771748;30;20051;-73
2021/10/24 17:37:10;;;;;;;36.78;5.93;;;18.00;71.90;;;;;;4788465;30;20066;-73
2021/10/24 17:39:35;;;;;;;26.58;5.78;;;18.00;71.50;;;;;;4783366;30;20480;-77
2021/10/24 17:42:01;;;;;;;51.17;6.97;;;18.00;71.70;;;;;;4771699;30;20063;-73
2021/10/24 17:44:27;;;;;;;53.22;6.32;;;17.80;69.90;;;;;;4771418;30;20048;-73
2021/10/24 17:46:53;;;;;;;34.15;5.50;;;17.80;70.80;;;;;;4771680;30;20051;-73
2021/10/24 17:49:18;;;;;;;32.95;6.20;;;17.80;71.30;;;;;;4771664;30;20468;-73
2021/10/24 17:51:44;;;;;;;23.25;4.85;;;17.80;71.30;;;;;;4771615;30;20185;-73
2021/10/24 17:54:10;;;;;;;28.27;4.93;;;17.80;71.20;;;;;;4771926;30;20047;-74
2021/10/24 17:56:36;;;;;;;26.67;5.00;;;17.80;71.10;;;;;;4771687;30;20062;-73
2021/10/24 17:59:02;;;;;;;24.92;4.80;;;17.80;71.00;;;;;;4771975;30;20078;-73
2021/10/24 18:01:28;;;;;;;22.92;4.93;;;17.80;70.80;;;;;;4770240;30;20492;-74
2021/10/24 18:03:54;;;;;;;22.35;4.43;;;17.80;70.70;;;;;;4771677;30;20051;-73
2021/10/24 18:06:19;;;;;;;17.65;4.63;;;17.80;70.70;;;;;;4771143;30;20051;-72
2021/10/24 18:08:45;;;;;;;18.27;4.20;;;17.80;70.60;;;;;;4770767;30;20051;-73
2021/10/24 18:11:11;;;;;;;17.98;4.03;;;17.80;70.60;;;;;;4771457;30;20051;-73
2021/10/24 18:13:39;;;;;;;16.75;4.45;;;17.80;70.60;;;;;;4771678;30;20056;-73
2021/10/24 18:16:07;;;;;;;17.35;3.58;;;17.80;70.60;;;;;;4771412;30;20131;-73
2021/10/24 18:18:36;;;;;;;13.48;4.07;;;17.80;70.70;;;;;;4771111;30;20457;-72
2021/10/24 18:21:04;;;;;;;14.20;4.05;;;17.80;70.80;;;;;;4771245;30;20094;-73
2021/10/24 18:23:31;;;;;;;19.58;4.03;;;17.80;70.70;;;;;;4771248;30;20055;-73
2021/10/24 18:25:58;;;;;;;22.02;4.68;;;17.80;70.80;;;;;;4770423;30;20039;-73
2021/10/24 18:28:27;;;;;;;19.10;3.70;;;17.80;70.70;;;;;;4774159;30;20092;-73
2021/10/24 18:30:53;;;;;;;20.55;3.90;;;17.70;70.10;;;;;;4774174;30;20062;-74
2021/10/24 18:33:19;;;;;;;19.17;4.22;;;17.70;70.30;;;;;;4774332;30;20414;-72
2021/10/24 18:35:45;;;;;;;13.80;3.60;;;17.60;70.20;;;;;;4774582;30;20120;-72
2021/10/24 18:38:11;;;;;;;13.55;4.05;;;17.60;70.10;;;;;;4774687;30;20063;-72
2021/10/24 18:40:37;;;;;;;17.88;4.65;;;17.60;70.30;;;;;;4774595;30;20432;-73
2021/10/24 18:43:03;;;;;;;21.73;4.03;;;17.50;70.90;;;;;;4774817;30;20345;-74
2021/10/24 18:45:29;;;;;;;12.32;4.13;;;17.50;70.30;;;;;;4773474;30;20052;-74
2021/10/24 18:47:56;;;;;;;20.05;4.63;;;17.40;70.40;;;;;;4773955;30;20048;-74
2021/10/24 18:50:25;;;;;;;14.40;4.30;;;17.40;70.50;;;;;;4774107;30;20076;-75
2021/10/24 18:52:52;;;;;;;10.02;4.15;;;17.40;70.60;;;;;;4774576;30;20484;-73
2021/10/24 18:55:17;;;;;;;17.65;4.70;;;17.30;70.50;;;;;;4774421;30;20047;-74